createdAt,value
2022-08-05T00:00:18.708Z,3.30
2022-08-05T00:02:50.825Z,3.65
2022-08-05T00:05:27.117Z,3.55
2022-08-05T00:08:32.719Z,3.85
2022-08-05T00:10:53.438Z,3.92
2022-08-05T00:13:20.648Z,4.25
2022-08-05T00:16:09.282Z,3.70
2022-08-05T00:18:38.972Z,4.47
2022-08-05T00:21:08.495Z,3.47
2022-08-05T00:23:45.834Z,3.60
2022-08-05T00:26:22.007Z,3.80
2022-08-05T00:28:49.861Z,4.18
2022-08-05T00:31:53.135Z,3.30
2022-08-05T00:34:57.051Z,3.72
2022-08-05T00:37:12.608Z,3.95
2022-08-05T00:39:44.572Z,3.33
2022-08-05T00:42:37.025Z,3.67
2022-08-05T00:45:08.843Z,3.45
2022-08-05T00:47:56.494Z,4.13
2022-08-05T00:50:27.888Z,3.88
2022-08-05T00:52:55.530Z,3.78
2022-08-05T00:55:41.993Z,3.67
2022-08-05T00:58:19.422Z,4.10
2022-08-05T01:00:47.817Z,4.07
2022-08-05T01:03:22.325Z,3.85
2022-08-05T01:05:51.985Z,3.88
2022-08-05T01:08:40.219Z,3.72
2022-08-05T01:11:36.682Z,3.70
2022-08-05T01:14:37.007Z,3.78
2022-08-05T01:17:09.052Z,3.78
2022-08-05T01:20:06.342Z,3.97
2022-08-05T01:22:51.445Z,3.70
2022-08-05T01:25:52.338Z,3.67
2022-08-05T01:31:23.883Z,4.18
2022-08-05T01:34:09.376Z,4.03
2022-08-05T01:36:50.873Z,4.20
2022-08-05T01:39:36.884Z,4.00
2022-08-05T01:42:09.735Z,4.03
2022-08-05T01:44:39.515Z,3.88
2022-08-05T01:47:09.652Z,4.13
2022-08-05T01:50:01.735Z,4.22
2022-08-05T01:52:28.033Z,3.83
2022-08-05T01:55:01.517Z,3.97
2022-08-05T01:58:09.942Z,4.30
2022-08-05T02:00:29.862Z,4.20
2022-08-05T02:03:32.095Z,4.30
2022-08-05T02:06:03.560Z,4.50
2022-08-05T02:08:58.444Z,4.05
2022-08-05T02:11:35.080Z,3.67
2022-08-05T02:14:13.125Z,4.22
2022-08-05T02:16:53.467Z,5.07
2022-08-05T02:19:34.153Z,4.20
2022-08-05T02:22:26.806Z,4.30
2022-08-05T02:25:19.595Z,4.85
2022-08-05T02:27:58.099Z,3.85
2022-08-05T02:30:34.331Z,4.47
2022-08-05T02:33:05.058Z,4.20
2022-08-05T02:35:37.620Z,4.28
2022-08-05T02:38:12.513Z,4.10
2022-08-05T02:40:47.569Z,4.05
2022-08-05T02:43:16.955Z,4.30
2022-08-05T02:45:52.275Z,4.32
2022-08-05T02:48:29.129Z,4.10
2022-08-05T02:51:00.109Z,4.32
2022-08-05T02:53:39.373Z,4.25
2022-08-05T02:56:15.893Z,4.90
2022-08-05T02:58:51.669Z,4.72
2022-08-05T03:01:25.042Z,4.30
2022-08-05T03:04:03.330Z,4.35
2022-08-05T03:06:54.783Z,4.97
2022-08-05T03:09:36.164Z,4.43
2022-08-05T03:12:06.323Z,4.65
2022-08-05T03:14:35.456Z,4.15
2022-08-05T03:17:12.961Z,4.30
2022-08-05T03:19:39.944Z,4.78
2022-08-05T03:22:16.234Z,4.72
2022-08-05T03:24:47.108Z,5.00
2022-08-05T03:27:15.821Z,5.10
2022-08-05T03:29:59.583Z,4.97
2022-08-05T03:32:31.417Z,5.03
2022-08-05T03:35:00.117Z,4.90
2022-08-05T03:37:28.015Z,5.15
2022-08-05T03:40:01.158Z,4.78
2022-08-05T03:42:32.435Z,4.80
2022-08-05T03:45:01.907Z,4.93
2022-08-05T03:47:49.287Z,5.30
2022-08-05T03:50:16.539Z,4.57
2022-08-05T03:55:34.547Z,5.22
2022-08-05T03:56:17.914Z,5.22
2022-08-05T03:59:01.235Z,4.78
2022-08-05T04:01:32.182Z,5.05
2022-08-05T04:04:10.035Z,6.70
2022-08-05T04:06:47.624Z,5.07
2022-08-05T04:09:20.470Z,5.90
2022-08-05T04:11:56.784Z,5.55
2022-08-05T04:14:30.513Z,5.25
2022-08-05T04:17:00.043Z,5.53
2022-08-05T04:19:29.643Z,5.88
2022-08-05T04:22:05.736Z,5.68
2022-08-05T04:24:38.935Z,5.13
2022-08-05T04:27:13.763Z,5.55
2022-08-05T04:29:41.585Z,5.45
2022-08-05T04:32:10.355Z,5.45
2022-08-05T04:34:43.044Z,5.50
2022-08-05T04:37:13.550Z,5.13
2022-08-05T04:39:40.653Z,6.07
2022-08-05T04:42:08.399Z,5.50
2022-08-05T04:44:36.255Z,5.45
2022-08-05T04:47:09.011Z,5.47
2022-08-05T04:50:02.988Z,5.43
2022-08-05T04:52:28.328Z,5.85
2022-08-05T04:54:56.887Z,6.10
2022-08-05T04:57:29.154Z,5.40
2022-08-05T04:59:58.344Z,7.32
2022-08-05T05:02:37.739Z,5.55
2022-08-05T05:05:25.978Z,5.88
2022-08-05T05:08:01.856Z,5.20
2022-08-05T05:10:55.960Z,5.25
2022-08-05T05:13:23.569Z,5.28
2022-08-05T05:15:57.268Z,5.25
2022-08-05T05:18:28.657Z,5.45
2022-08-05T05:21:00.966Z,5.50
2022-08-05T05:24:01.630Z,5.32
2022-08-05T05:26:15.310Z,5.97
2022-08-05T05:28:44.752Z,5.40
2022-08-05T05:31:13.066Z,4.75
2022-08-05T05:33:59.806Z,5.57
2022-08-05T05:36:28.579Z,5.70
2022-08-05T05:38:57.784Z,5.47
2022-08-05T05:41:25.009Z,6.05
2022-08-05T05:43:58.212Z,5.40
2022-08-05T05:46:27.430Z,5.53
2022-08-05T05:48:54.481Z,5.20
2022-08-05T05:51:24.170Z,6.15
2022-08-05T05:53:57.758Z,5.13
2022-08-05T05:56:33.816Z,5.00
2022-08-05T05:59:05.884Z,5.18
2022-08-05T06:01:37.760Z,4.75
2022-08-05T06:04:14.910Z,4.97
2022-08-05T06:06:46.600Z,4.50
2022-08-05T06:09:17.564Z,3.88
2022-08-05T06:12:01.696Z,3.28
2022-08-05T06:14:31.449Z,3.17
2022-08-05T06:16:59.579Z,2.70
2022-08-05T06:19:35.107Z,3.10
2022-08-05T06:22:04.403Z,2.90
2022-08-05T06:24:35.376Z,2.45
2022-08-05T06:27:04.041Z,2.50
2022-08-05T06:29:49.556Z,2.50
2022-08-05T06:32:24.921Z,3.08
2022-08-05T06:34:56.070Z,2.58
2022-08-05T06:37:56.725Z,2.28
2022-08-05T06:42:52.838Z,2.40
2022-08-05T06:48:37.246Z,2.28
2022-08-05T06:50:57.459Z,2.40
2022-08-05T06:53:28.432Z,2.65
2022-08-05T06:58:34.798Z,2.40
2022-08-05T07:01:04.018Z,2.47
2022-08-05T07:03:33.204Z,2.30
2022-08-05T07:06:05.799Z,2.47
2022-08-05T07:08:42.796Z,2.67
2022-08-05T07:11:15.516Z,2.50
2022-08-05T07:14:02.453Z,2.63
2022-08-05T07:18:01.318Z,2.67
2022-08-05T07:22:28.504Z,2.17
2022-08-05T07:24:59.569Z,2.72
2022-08-05T07:27:58.047Z,2.10
2022-08-05T07:30:33.439Z,2.20
2022-08-05T07:33:09.862Z,2.47
2022-08-05T07:35:55.896Z,2.28
2022-08-05T07:38:33.471Z,2.03
2022-08-05T07:42:14.748Z,1.67
2022-08-05T07:44:14.149Z,2.05
2022-08-05T07:46:50.238Z,2.10
2022-08-05T07:49:18.727Z,2.47
2022-08-05T07:51:52.983Z,2.47
2022-08-05T07:54:30.260Z,1.92
2022-08-05T07:57:18.131Z,2.03
2022-08-05T07:59:48.839Z,2.00
2022-08-05T08:02:17.787Z,2.42
2022-08-05T08:04:47.322Z,1.70
2022-08-05T08:07:14.998Z,2.00
2022-08-05T08:09:43.391Z,1.98
2022-08-05T08:12:37.115Z,2.25
2022-08-05T08:15:03.561Z,2.28
2022-08-05T08:17:40.032Z,1.77
2022-08-05T08:20:43.194Z,2.28
2022-08-05T08:23:03.362Z,2.30
2022-08-05T08:25:59.281Z,1.88
2022-08-05T08:28:36.886Z,2.03
2022-08-05T08:31:08.670Z,1.95
2022-08-05T08:33:38.155Z,1.80
2022-08-05T08:38:57.186Z,2.00
2022-08-05T08:41:52.361Z,1.95
2022-08-05T08:45:17.857Z,1.70
2022-08-05T08:47:47.262Z,2.00
2022-08-05T08:50:23.438Z,2.10
2022-08-05T08:52:56.850Z,1.83
2022-08-05T08:56:02.773Z,1.48
2022-08-05T08:58:17.126Z,1.50
2022-08-05T09:00:45.174Z,1.88
2022-08-05T09:03:16.187Z,1.83
2022-08-05T09:06:07.550Z,2.15
2022-08-05T09:08:35.155Z,1.70
2022-08-05T09:11:08.895Z,1.60
2022-08-05T09:14:01.208Z,1.60
2022-08-05T09:16:32.297Z,1.67
2022-08-05T09:18:59.649Z,1.92
2022-08-05T09:22:22.056Z,1.92
2022-08-05T09:24:15.897Z,1.88
2022-08-05T09:26:51.759Z,1.77
2022-08-05T09:29:19.553Z,1.85
2022-08-05T09:32:51.069Z,1.90
2022-08-05T09:34:58.661Z,2.30
2022-08-05T09:38:17.021Z,1.60
2022-08-05T09:40:52.472Z,2.28
2022-08-05T09:43:40.791Z,1.77
2022-08-05T09:46:35.034Z,2.33
2022-08-05T09:49:18.820Z,1.70
2022-08-05T09:51:49.437Z,1.80
2022-08-05T09:54:28.754Z,2.13
2022-08-05T09:56:57.617Z,2.05
2022-08-05T09:59:28.588Z,1.92
2022-08-05T10:02:02.274Z,2.15
2022-08-05T10:04:39.869Z,2.00
2022-08-05T10:07:21.060Z,1.70
2022-08-05T10:10:15.344Z,1.73
2022-08-05T10:13:02.691Z,2.28
2022-08-05T10:15:52.135Z,1.85
2022-08-05T10:18:22.510Z,1.88
2022-08-05T10:21:11.834Z,2.30
2022-08-05T10:23:55.567Z,1.90
2022-08-05T10:26:32.742Z,2.00
2022-08-05T10:29:01.159Z,2.08
2022-08-05T10:32:54.722Z,1.80
2022-08-05T10:34:17.171Z,1.90
2022-08-05T10:36:44.424Z,1.90
2022-08-05T10:39:59.018Z,1.80
2022-08-05T10:42:33.865Z,1.70
2022-08-05T10:45:09.620Z,1.85
2022-08-05T10:48:30.064Z,1.92
2022-08-05T10:51:21.799Z,2.40
2022-08-05T10:54:01.711Z,2.33
2022-08-05T10:56:53.110Z,2.58
2022-08-05T11:00:02.939Z,2.10
2022-08-05T11:02:34.764Z,1.98
2022-08-05T11:05:10.588Z,2.33
2022-08-05T11:10:27.258Z,2.25
2022-08-05T11:12:56.087Z,2.38
2022-08-05T11:16:01.118Z,2.10
2022-08-05T11:18:34.166Z,2.30
2022-08-05T11:21:11.393Z,2.63
2022-08-05T11:24:04.472Z,2.17
2022-08-05T11:26:32.378Z,2.30
2022-08-05T11:29:13.004Z,2.63
2022-08-05T11:31:57.714Z,3.00
2022-08-05T11:34:50.883Z,2.25
2022-08-05T11:38:30.027Z,2.15
2022-08-05T11:41:14.007Z,2.30
2022-08-05T11:44:05.789Z,2.55
2022-08-05T11:46:58.354Z,2.60
2022-08-05T11:49:34.066Z,2.10
2022-08-05T11:52:01.605Z,2.35
2022-08-05T11:54:38.164Z,2.75
2022-08-05T11:57:24.966Z,2.67
2022-08-05T11:59:55.854Z,2.40
2022-08-05T12:02:31.548Z,2.28
2022-08-05T12:05:07.439Z,2.97
2022-08-05T12:08:10.228Z,2.45
2022-08-05T12:10:42.970Z,2.72
2022-08-05T12:13:28.330Z,2.17
2022-08-05T12:16:19.357Z,2.58
2022-08-05T12:18:49.414Z,3.45
2022-08-05T12:21:39.129Z,3.00
2022-08-05T12:24:19.099Z,3.08
2022-08-05T12:26:54.047Z,2.55
2022-08-05T12:29:26.585Z,3.25
2022-08-05T12:32:01.791Z,2.70
2022-08-05T12:34:37.110Z,2.47
2022-08-05T12:37:17.354Z,2.40
2022-08-05T12:39:53.868Z,2.35
2022-08-05T12:42:21.803Z,2.80
2022-08-05T12:47:30.844Z,2.78
2022-08-05T12:50:04.310Z,3.10
2022-08-05T12:52:42.404Z,2.67
2022-08-05T12:55:28.688Z,2.60
2022-08-05T12:58:50.692Z,2.95
2022-08-05T13:02:01.452Z,3.90
2022-08-05T13:03:38.908Z,2.47
2022-08-05T13:06:11.662Z,2.70
2022-08-05T13:08:39.948Z,3.03
2022-08-05T13:11:07.952Z,2.47
2022-08-05T13:14:04.874Z,2.70
2022-08-05T13:16:27.999Z,2.88
2022-08-05T13:18:58.449Z,2.40
2022-08-05T13:21:27.991Z,2.70
2022-08-05T13:24:08.955Z,2.85
2022-08-05T13:26:36.546Z,3.10
2022-08-05T13:29:05.037Z,3.08
2022-08-05T13:31:34.063Z,2.50
2022-08-05T13:34:23.558Z,2.67
2022-08-05T13:36:54.432Z,3.00
2022-08-05T13:40:14.661Z,2.35
2022-08-05T13:42:14.552Z,2.67
2022-08-05T13:44:45.731Z,2.58
2022-08-05T13:47:35.419Z,2.85
2022-08-05T13:50:06.220Z,2.72
2022-08-05T13:55:04.855Z,2.70
2022-08-05T13:57:50.826Z,2.70
2022-08-05T14:00:27.059Z,2.58
2022-08-05T14:02:58.172Z,2.85
2022-08-05T14:05:47.981Z,2.67
2022-08-05T14:08:21.188Z,2.80
2022-08-05T14:11:03.184Z,2.47
2022-08-05T14:13:43.206Z,2.70
2022-08-05T14:16:16.763Z,3.78
2022-08-05T14:18:45.442Z,2.80
2022-08-05T14:22:10.245Z,2.97
2022-08-05T14:24:00.827Z,2.90
2022-08-05T14:26:36.946Z,2.95
2022-08-05T14:29:16.136Z,2.85
2022-08-05T14:32:12.137Z,2.60
2022-08-05T14:34:43.229Z,2.92
2022-08-05T14:37:13.307Z,2.88
2022-08-05T14:39:49.620Z,2.55
2022-08-05T14:42:29.438Z,2.83
2022-08-05T14:44:56.865Z,2.67
2022-08-05T14:48:05.710Z,2.70
2022-08-05T14:50:17.471Z,2.72
2022-08-05T14:53:00.581Z,2.75
2022-08-05T14:55:39.353Z,2.58
2022-08-05T14:58:11.986Z,3.00
2022-08-05T15:00:58.695Z,2.90
2022-08-05T15:03:33.526Z,2.85
2022-08-05T15:06:07.387Z,3.10
2022-08-05T15:08:59.739Z,3.35
2022-08-05T15:11:51.862Z,3.20
2022-08-05T15:14:34.234Z,3.17
2022-08-05T15:17:03.987Z,2.80
2022-08-05T15:19:32.447Z,3.00
2022-08-05T15:22:01.297Z,3.08
2022-08-05T15:24:29.462Z,3.38
2022-08-05T15:26:57.040Z,2.70
2022-08-05T15:29:30.125Z,2.90
2022-08-05T15:32:03.077Z,2.65
2022-08-05T15:34:34.033Z,2.83
2022-08-05T15:37:06.932Z,3.13
2022-08-05T15:40:59.325Z,2.93
2022-08-05T15:42:56.138Z,3.03
2022-08-05T15:45:17.385Z,2.80
2022-08-05T15:47:45.954Z,2.80
2022-08-05T15:50:15.929Z,2.60
2022-08-05T15:52:53.370Z,2.67
2022-08-05T15:57:54.139Z,3.30
2022-08-05T16:00:26.474Z,2.63
2022-08-05T16:03:10.570Z,3.10
2022-08-05T16:05:38.989Z,2.80
2022-08-05T16:08:08.698Z,2.65
2022-08-05T16:10:35.748Z,2.50
2022-08-05T16:13:03.172Z,3.00
2022-08-05T16:15:32.673Z,3.03
2022-08-05T16:18:01.097Z,3.30
2022-08-05T16:20:31.665Z,2.95
2022-08-05T16:22:59.939Z,2.63
2022-08-05T16:25:34.036Z,3.00
2022-08-05T16:28:05.478Z,3.20
2022-08-05T16:30:34.292Z,2.95
2022-08-05T16:33:04.559Z,2.90
2022-08-05T16:35:33.588Z,2.92
2022-08-05T16:38:15.746Z,3.15
2022-08-05T16:40:51.905Z,3.08
2022-08-05T16:43:24.163Z,2.80
2022-08-05T16:46:04.177Z,2.90
2022-08-05T16:48:38.689Z,2.90
2022-08-05T16:51:09.753Z,2.72
2022-08-05T16:54:05.688Z,3.05
2022-08-05T16:56:31.311Z,3.08
2022-08-05T16:58:58.947Z,3.30
2022-08-05T17:01:28.113Z,3.28
2022-08-05T17:04:15.283Z,3.45
2022-08-05T17:06:42.439Z,3.30
2022-08-05T17:09:09.569Z,3.65
2022-08-05T17:11:48.408Z,3.45
2022-08-05T17:14:34.217Z,3.53
2022-08-05T17:17:05.476Z,3.00
2022-08-05T17:19:32.562Z,3.28
2022-08-05T17:22:01.296Z,3.25
2022-08-05T17:24:38.586Z,2.70
2022-08-05T17:27:09.446Z,3.70
2022-08-05T17:29:42.363Z,3.20
2022-08-05T17:32:11.763Z,3.10
2022-08-05T17:34:47.878Z,3.55
2022-08-05T17:37:40.575Z,2.97
2022-08-05T17:40:10.879Z,3.53
2022-08-05T17:42:41.426Z,3.25
2022-08-05T17:45:20.927Z,3.20
2022-08-05T17:47:54.575Z,3.97
2022-08-05T17:50:29.458Z,3.53
2022-08-05T17:53:02.582Z,4.50
2022-08-05T17:55:37.353Z,5.25
2022-08-05T17:58:12.422Z,7.75
2022-08-05T18:00:47.085Z,10.20
2022-08-05T18:03:48.459Z,9.57
2022-08-05T18:06:11.691Z,8.82
2022-08-05T18:08:52.691Z,8.52
2022-08-05T18:11:23.163Z,9.23
2022-08-05T18:13:52.373Z,10.15
2022-08-05T18:16:20.385Z,8.68
2022-08-05T18:18:49.921Z,7.35
2022-08-05T18:21:19.824Z,7.68
2022-08-05T18:23:53.989Z,5.85
2022-08-05T18:26:29.194Z,6.35
2022-08-05T18:28:59.105Z,5.75
2022-08-05T18:31:33.108Z,5.90
2022-08-05T18:34:05.939Z,5.78
2022-08-05T18:36:35.457Z,5.45
2022-08-05T18:39:06.668Z,5.15
2022-08-05T18:41:57.398Z,5.63
2022-08-05T18:44:35.013Z,5.40
2022-08-05T18:47:10.166Z,5.60
2022-08-05T18:50:00.096Z,5.50
2022-08-05T18:52:35.968Z,5.28
2022-08-05T18:55:10.409Z,4.60
2022-08-05T18:57:43.068Z,5.30
2022-08-05T19:00:20.326Z,5.35
2022-08-05T19:02:48.142Z,5.60
2022-08-05T19:06:05.736Z,5.50
2022-08-05T19:08:07.518Z,5.88
2022-08-05T19:10:40.717Z,5.82
2022-08-05T19:13:07.796Z,5.72
2022-08-05T19:18:26.534Z,5.88
2022-08-05T19:20:55.733Z,6.13
2022-08-05T19:24:05.608Z,6.00
2022-08-05T19:26:11.818Z,6.32
2022-08-05T19:28:43.302Z,5.80
2022-08-05T19:31:18.088Z,5.93
2022-08-05T19:33:56.635Z,6.50
2022-08-05T19:36:26.154Z,5.90
2022-08-05T19:39:00.912Z,5.47
2022-08-05T19:42:03.360Z,7.15
2022-08-05T19:44:18.821Z,6.05
2022-08-05T19:46:46.712Z,6.18
2022-08-05T19:49:16.940Z,6.18
2022-08-05T19:52:05.522Z,6.35
2022-08-05T19:54:35.190Z,6.55
2022-08-05T19:57:06.657Z,6.40
2022-08-05T20:02:25.940Z,6.85
2022-08-05T20:04:54.829Z,7.28
2022-08-05T20:07:45.657Z,6.80
2022-08-05T20:10:13.354Z,7.10
2022-08-05T20:15:23.454Z,6.30
2022-08-05T20:18:32.802Z,5.72
2022-08-05T20:20:57.222Z,5.80
2022-08-05T20:23:40.657Z,5.53
2022-08-05T20:26:15.879Z,5.70
2022-08-05T20:28:50.182Z,6.00
2022-08-05T20:31:21.388Z,5.75
2022-08-05T20:33:50.842Z,5.22
2022-08-05T20:36:19.111Z,5.82
2022-08-05T20:38:53.794Z,5.40
2022-08-05T20:41:44.453Z,6.60
2022-08-05T20:44:18.489Z,6.13
2022-08-05T20:46:57.440Z,5.70
2022-08-05T20:49:26.049Z,5.60
2022-08-05T20:51:55.141Z,5.68
2022-08-05T20:54:25.476Z,5.60
2022-08-05T20:57:11.235Z,5.50
2022-08-05T21:00:10.521Z,5.32
2022-08-05T21:02:29.135Z,6.15
2022-08-05T21:04:56.171Z,5.70
2022-08-05T21:07:24.517Z,5.63
2022-08-05T21:09:53.648Z,5.88
2022-08-05T21:12:21.752Z,6.00
2022-08-05T21:14:54.208Z,5.82
2022-08-05T21:17:22.294Z,5.43
2022-08-05T21:19:52.224Z,5.22
2022-08-05T21:22:23.502Z,5.38
2022-08-05T21:24:54.325Z,5.10
2022-08-05T21:27:27.398Z,5.70
2022-08-05T21:30:01.966Z,4.97
2022-08-05T21:32:29.941Z,5.63
2022-08-05T21:35:18.099Z,5.75
2022-08-05T21:37:47.320Z,5.43
2022-08-05T21:40:20.178Z,5.65
2022-08-05T21:42:47.706Z,6.03
2022-08-05T21:45:38.143Z,6.10
2022-08-05T21:48:08.242Z,5.35
2022-08-05T21:50:36.700Z,5.60
2022-08-05T21:53:16.066Z,5.53
2022-08-05T21:56:04.848Z,5.03
2022-08-05T21:58:42.233Z,5.45
2022-08-05T22:01:10.633Z,6.18
2022-08-05T22:03:48.652Z,4.75
2022-08-05T22:06:22.770Z,4.63
2022-08-05T22:09:00.706Z,4.40
2022-08-05T22:11:35.023Z,4.97
2022-08-05T22:14:33.778Z,4.00
2022-08-05T22:16:53.177Z,3.97
2022-08-05T22:20:02.879Z,3.92
2022-08-05T22:22:12.607Z,3.97
2022-08-05T22:25:01.046Z,3.95
2022-08-05T22:28:09.620Z,4.70
2022-08-05T22:30:32.309Z,3.95
2022-08-05T22:33:15.865Z,3.67
2022-08-05T22:35:48.899Z,3.70
2022-08-05T22:38:18.836Z,4.20
2022-08-05T22:40:49.495Z,3.40
2022-08-05T22:43:36.839Z,3.47
2022-08-05T22:46:23.465Z,3.47
2022-08-05T22:48:55.817Z,3.28
2022-08-05T22:52:03.025Z,3.10
2022-08-05T22:54:14.019Z,3.50
2022-08-05T22:56:41.401Z,3.33
2022-08-05T22:59:44.049Z,3.45
2022-08-05T23:02:05.535Z,3.78
2022-08-05T23:04:34.040Z,3.08
2022-08-05T23:07:01.406Z,3.10
2022-08-05T23:09:57.579Z,3.67
2022-08-05T23:12:17.990Z,3.05
2022-08-05T23:14:45.270Z,2.67
2022-08-05T23:17:34.602Z,3.28
2022-08-05T23:20:17.686Z,3.10
2022-08-05T23:22:48.741Z,3.75
2022-08-05T23:25:53.094Z,3.47
2022-08-05T23:28:07.001Z,3.55
2022-08-05T23:30:40.194Z,5.68
2022-08-05T23:33:16.022Z,3.67
2022-08-05T23:35:51.075Z,3.50
2022-08-05T23:38:18.431Z,3.38
2022-08-05T23:40:49.697Z,3.50
2022-08-05T23:43:25.159Z,3.55
2022-08-05T23:46:20.913Z,3.33
2022-08-05T23:49:00.440Z,3.85
2022-08-05T23:51:54.059Z,3.38
2022-08-05T23:54:30.502Z,3.58
